createdAt,value
2018-11-02T00:01:02.033Z,75.00
2018-11-02T00:03:06.488Z,74.80
2018-11-02T00:05:10.104Z,74.70
2018-11-02T00:07:14.139Z,75.00
2018-11-02T00:09:17.852Z,75.10
2018-11-02T00:11:21.419Z,75.00
2018-11-02T00:13:25.027Z,74.90
2018-11-02T00:15:28.759Z,74.70
2018-11-02T00:17:32.287Z,75.70
2018-11-02T00:19:35.967Z,75.40
2018-11-02T00:21:39.486Z,75.30
2018-11-02T00:23:43.293Z,75.00
2018-11-02T00:25:46.841Z,74.80
2018-11-02T00:27:50.622Z,74.60
2018-11-02T00:29:54.332Z,74.70
2018-11-02T00:31:58.003Z,74.60
2018-11-02T00:34:01.600Z,74.60
2018-11-02T00:36:05.226Z,74.50
2018-11-02T00:38:08.836Z,74.70
2018-11-02T00:40:12.393Z,74.70
2018-11-02T00:42:15.928Z,74.50
2018-11-02T00:44:19.515Z,74.40
2018-11-02T00:46:23.126Z,74.90
2018-11-02T00:48:26.731Z,76.90
2018-11-02T00:50:30.247Z,75.40
2018-11-02T00:52:33.740Z,77.10
2018-11-02T00:54:37.409Z,77.00
2018-11-02T00:56:40.970Z,75.50
2018-11-02T00:58:44.512Z,75.10
2018-11-02T01:00:48.117Z,74.50
2018-11-02T01:02:51.629Z,74.20
2018-11-02T01:04:55.232Z,74.30
2018-11-02T01:06:58.914Z,74.50
2018-11-02T01:09:02.584Z,74.70
2018-11-02T01:11:06.712Z,74.70
2018-11-02T01:13:10.341Z,74.70
2018-11-02T01:15:13.873Z,74.40
2018-11-02T01:17:17.482Z,74.40
2018-11-02T01:19:25.117Z,74.40
2018-11-02T01:21:28.799Z,74.50
2018-11-02T01:23:32.305Z,74.20
2018-11-02T01:25:36.128Z,74.50
2018-11-02T01:27:39.701Z,74.50
2018-11-02T01:29:43.203Z,74.70
2018-11-02T01:31:46.882Z,74.50
2018-11-02T01:33:50.401Z,74.50
2018-11-02T01:35:53.919Z,74.40
2018-11-02T01:37:57.454Z,74.90
2018-11-02T01:40:01.081Z,76.40
2018-11-02T01:42:04.746Z,75.30
2018-11-02T01:44:08.491Z,74.90
2018-11-02T01:46:12.065Z,74.70
2018-11-02T01:48:15.736Z,74.40
2018-11-02T01:50:19.275Z,74.00
2018-11-02T01:52:22.969Z,73.70
2018-11-02T01:54:26.503Z,73.80
2018-11-02T01:56:30.207Z,74.20
2018-11-02T01:58:33.872Z,74.40
2018-11-02T02:00:37.650Z,74.30
2018-11-02T02:02:41.312Z,74.40
2018-11-02T02:04:44.884Z,74.00
2018-11-02T02:06:48.454Z,74.00
2018-11-02T02:08:52.220Z,73.90
2018-11-02T02:10:55.800Z,73.90
2018-11-02T02:12:59.489Z,74.10
2018-11-02T02:15:03.151Z,74.10
2018-11-02T02:17:07.112Z,73.90
2018-11-02T02:19:17.292Z,73.60
2018-11-02T02:21:20.871Z,73.70
2018-11-02T02:23:24.379Z,73.90
2018-11-02T02:25:28.171Z,73.80
2018-11-02T02:27:36.151Z,73.90
2018-11-02T02:29:39.701Z,74.30
2018-11-02T02:31:49.955Z,74.20
2018-11-02T02:33:53.453Z,74.00
2018-11-02T02:35:57.024Z,73.90
2018-11-02T02:38:00.522Z,74.10
2018-11-02T02:40:04.831Z,74.00
2018-11-02T02:42:08.429Z,74.10
2018-11-02T02:44:11.955Z,73.90
2018-11-02T02:46:15.542Z,73.90
2018-11-02T02:48:19.178Z,73.60
2018-11-02T02:50:22.745Z,73.10
2018-11-02T02:52:26.614Z,73.30
2018-11-02T02:54:30.288Z,73.50
2018-11-02T02:56:33.874Z,73.40
2018-11-02T02:58:37.498Z,73.40
2018-11-02T03:00:41.012Z,73.00
2018-11-02T03:02:44.596Z,72.90
2018-11-02T03:04:48.148Z,72.60
2018-11-02T03:06:51.747Z,72.70
2018-11-02T03:08:55.645Z,72.80
2018-11-02T03:10:59.321Z,74.30
2018-11-02T03:13:02.827Z,74.50
2018-11-02T03:15:06.877Z,74.60
2018-11-02T03:17:10.485Z,75.10
2018-11-02T03:19:14.029Z,76.70
2018-11-02T03:21:17.522Z,76.80
2018-11-02T03:23:21.154Z,77.10
2018-11-02T03:25:24.722Z,77.20
2018-11-02T03:27:28.638Z,76.60
2018-11-02T03:29:32.427Z,75.90
2018-11-02T03:31:35.935Z,75.50
2018-11-02T03:33:39.464Z,74.90
2018-11-02T03:35:43.068Z,74.90
2018-11-02T03:37:46.575Z,74.70
2018-11-02T03:39:50.137Z,74.80
2018-11-02T03:41:53.670Z,73.60
2018-11-02T03:43:57.288Z,75.20
2018-11-02T03:46:00.795Z,75.40
2018-11-02T03:48:04.362Z,75.30
2018-11-02T03:50:08.759Z,75.20
2018-11-02T03:52:12.451Z,73.90
2018-11-02T03:54:16.118Z,73.80
2018-11-02T03:56:20.060Z,73.70
2018-11-02T03:58:23.752Z,73.50
2018-11-02T04:00:27.829Z,73.90
2018-11-02T04:02:31.348Z,75.40
2018-11-02T04:04:35.008Z,75.70
2018-11-02T04:06:38.547Z,74.70
2018-11-02T04:08:42.062Z,74.50
2018-11-02T04:10:45.591Z,74.80
2018-11-02T04:12:49.312Z,73.90
2018-11-02T04:14:52.863Z,73.90
2018-11-02T04:16:56.352Z,73.90
2018-11-02T04:18:59.880Z,75.90
2018-11-02T04:21:03.533Z,75.40
2018-11-02T04:23:07.097Z,74.20
2018-11-02T04:25:10.631Z,74.00
2018-11-02T04:27:14.414Z,73.80
2018-11-02T04:29:17.933Z,73.70
2018-11-02T04:31:21.448Z,74.90
2018-11-02T04:33:25.150Z,74.60
2018-11-02T04:35:28.923Z,75.50
2018-11-02T04:37:32.505Z,76.10
2018-11-02T04:39:36.064Z,75.60
2018-11-02T04:41:39.794Z,75.50
2018-11-02T04:43:43.486Z,75.40
2018-11-02T04:45:47.015Z,75.30
2018-11-02T04:47:50.574Z,74.10
2018-11-02T04:49:54.075Z,74.20
2018-11-02T04:51:57.712Z,74.00
2018-11-02T04:54:01.248Z,74.20
2018-11-02T04:56:04.880Z,73.90
2018-11-02T04:58:08.538Z,74.90
2018-11-02T05:00:12.193Z,74.20
2018-11-02T05:02:15.799Z,75.30
2018-11-02T05:04:19.321Z,75.20
2018-11-02T05:06:23.098Z,74.00
2018-11-02T05:08:26.591Z,73.80
2018-11-02T05:10:30.101Z,73.90
2018-11-02T05:12:33.627Z,73.70
2018-11-02T05:14:37.151Z,73.80
2018-11-02T05:16:40.840Z,73.50
2018-11-02T05:18:44.464Z,73.60
2018-11-02T05:20:48.127Z,75.20
2018-11-02T05:22:51.639Z,76.10
2018-11-02T05:24:55.201Z,76.50
2018-11-02T05:26:58.754Z,76.00
2018-11-02T05:29:02.266Z,75.50
2018-11-02T05:31:06.245Z,75.20
2018-11-02T05:33:09.734Z,75.60
2018-11-02T05:35:13.266Z,75.60
2018-11-02T05:37:16.772Z,75.40
2018-11-02T05:39:20.455Z,75.30
2018-11-02T05:41:24.004Z,74.40
2018-11-02T05:43:27.727Z,73.60
2018-11-02T05:45:31.287Z,73.60
2018-11-02T05:47:34.966Z,74.70
2018-11-02T05:49:38.464Z,75.00
2018-11-02T05:51:42.088Z,74.80
2018-11-02T05:53:45.740Z,73.80
2018-11-02T05:55:49.249Z,74.00
2018-11-02T05:57:52.992Z,74.90
2018-11-02T05:59:56.528Z,75.30
2018-11-02T06:02:00.109Z,75.40
2018-11-02T06:04:03.751Z,75.40
2018-11-02T06:06:07.340Z,73.90
2018-11-02T06:08:10.876Z,73.90
2018-11-02T06:10:14.519Z,73.90
2018-11-02T06:12:18.176Z,73.70
2018-11-02T06:14:21.836Z,74.00
2018-11-02T06:16:25.423Z,74.20
2018-11-02T06:18:29.060Z,75.40
2018-11-02T06:20:32.667Z,75.50
2018-11-02T06:22:36.412Z,75.30
2018-11-02T06:24:39.974Z,74.70
2018-11-02T06:26:43.482Z,74.70
2018-11-02T06:28:46.977Z,74.40
2018-11-02T06:30:50.502Z,74.10
2018-11-02T06:32:54.153Z,73.70
2018-11-02T06:34:57.711Z,73.70
2018-11-02T06:37:01.247Z,73.30
2018-11-02T06:39:07.086Z,73.60
2018-11-02T06:41:10.749Z,73.90
2018-11-02T06:43:14.217Z,73.80
2018-11-02T06:45:18.291Z,73.80
2018-11-02T06:47:21.853Z,74.00
2018-11-02T06:49:25.400Z,74.30
2018-11-02T06:51:28.924Z,74.10
2018-11-02T06:53:32.519Z,74.10
2018-11-02T06:55:36.071Z,73.80
2018-11-02T06:57:39.923Z,73.90
2018-11-02T06:59:43.571Z,73.90
2018-11-02T07:01:46.995Z,74.40
2018-11-02T07:03:50.741Z,74.10
2018-11-02T07:05:54.549Z,74.80
2018-11-02T07:07:58.199Z,76.20
2018-11-02T07:10:01.647Z,76.20
2018-11-02T07:12:05.425Z,76.20
2018-11-02T07:14:09.670Z,74.70
2018-11-02T07:16:13.165Z,74.20
2018-11-02T07:18:16.936Z,74.60
2018-11-02T07:20:20.427Z,75.80
2018-11-02T07:22:23.911Z,75.20
2018-11-02T07:24:27.408Z,75.10
2018-11-02T07:26:30.916Z,75.00
2018-11-02T07:28:34.395Z,75.10
2018-11-02T07:30:37.876Z,75.20
2018-11-02T07:32:41.491Z,75.10
2018-11-02T07:34:45.013Z,75.30
2018-11-02T07:36:48.632Z,75.40
2018-11-02T07:39:08.724Z,75.30
2018-11-02T07:41:12.272Z,75.10
2018-11-02T07:43:15.704Z,75.00
2018-11-02T07:45:19.207Z,75.10
2018-11-02T07:47:22.917Z,74.50
2018-11-02T07:49:26.653Z,74.50
2018-11-02T07:51:30.083Z,74.70
2018-11-02T07:53:33.668Z,74.80
2018-11-02T07:55:37.166Z,74.90
2018-11-02T07:57:40.619Z,75.00
2018-11-02T07:59:44.168Z,75.10
2018-11-02T08:01:48.373Z,75.70
2018-11-02T08:03:51.842Z,76.00
2018-11-02T08:05:55.486Z,76.10
2018-11-02T08:07:59.033Z,76.10
2018-11-02T08:10:02.556Z,76.80
2018-11-02T08:12:06.051Z,77.90
2018-11-02T08:14:09.646Z,79.70
2018-11-02T08:16:13.203Z,81.40
2018-11-02T08:18:16.740Z,80.90
2018-11-02T08:20:20.252Z,79.80
2018-11-02T08:22:23.736Z,79.30
2018-11-02T08:24:27.283Z,78.90
2018-11-02T08:26:30.728Z,78.70
2018-11-02T08:28:34.231Z,78.20
2018-11-02T08:30:37.737Z,78.20
2018-11-02T08:32:41.348Z,78.10
2018-11-02T08:34:44.852Z,78.20
2018-11-02T08:36:48.427Z,79.20
2018-11-02T08:38:51.946Z,79.50
2018-11-02T08:40:55.646Z,80.10
2018-11-02T08:42:59.199Z,79.90
2018-11-02T08:45:02.711Z,80.20
2018-11-02T08:47:06.316Z,80.60
2018-11-02T08:49:09.786Z,81.60
2018-11-02T08:51:13.478Z,81.10
2018-11-02T08:53:16.977Z,80.40
2018-11-02T08:55:20.468Z,80.20
2018-11-02T08:57:23.959Z,80.00
2018-11-02T08:59:27.594Z,79.90
2018-11-02T09:01:31.156Z,80.00
2018-11-02T09:03:34.619Z,80.30
2018-11-02T09:05:38.171Z,80.10
2018-11-02T09:07:41.681Z,79.60
2018-11-02T09:09:45.361Z,79.60
2018-11-02T09:11:48.915Z,79.60
2018-11-02T09:13:52.483Z,79.90
2018-11-02T09:15:56.180Z,79.70
2018-11-02T09:17:59.742Z,79.40
2018-11-02T09:20:03.483Z,79.90
2018-11-02T09:22:07.089Z,79.80
2018-11-02T09:24:10.763Z,79.40
2018-11-02T09:26:14.305Z,79.40
2018-11-02T09:28:17.924Z,78.90
2018-11-02T09:30:21.521Z,78.60
2018-11-02T09:32:25.133Z,78.40
2018-11-02T09:34:28.952Z,78.30
2018-11-02T09:36:32.464Z,77.80
2018-11-02T09:38:36.016Z,77.60
2018-11-02T09:40:39.630Z,77.30
2018-11-02T09:42:43.227Z,78.10
2018-11-02T09:44:46.695Z,79.10
2018-11-02T09:46:50.414Z,78.20
2018-11-02T09:48:53.918Z,79.30
2018-11-02T09:50:57.492Z,80.10
2018-11-02T09:53:01.139Z,81.10
2018-11-02T09:55:05.335Z,83.20
2018-11-02T09:57:09.088Z,83.50
2018-11-02T09:59:12.610Z,82.20
2018-11-02T10:01:16.323Z,82.70
2018-11-02T10:03:20.070Z,81.90
2018-11-02T10:05:23.598Z,81.30
2018-11-02T10:07:27.176Z,80.30
2018-11-02T10:09:30.760Z,79.80
2018-11-02T10:11:34.423Z,80.30
2018-11-02T10:13:38.280Z,79.70
2018-11-02T10:15:41.774Z,79.40
2018-11-02T10:17:45.630Z,80.00
2018-11-02T10:19:49.352Z,80.10
2018-11-02T10:21:53.136Z,80.50
2018-11-02T10:23:56.695Z,79.70
2018-11-02T10:26:00.486Z,79.20
2018-11-02T10:28:04.344Z,79.00
2018-11-02T10:30:10.089Z,79.00
2018-11-02T10:32:13.795Z,79.10
2018-11-02T10:34:17.359Z,78.60
2018-11-02T10:36:21.443Z,79.00
2018-11-02T10:38:25.216Z,78.70
2018-11-02T10:40:29.685Z,78.60
2018-11-02T10:42:33.468Z,78.50
2018-11-02T10:44:40.624Z,78.40
2018-11-02T10:46:45.676Z,79.20
2018-11-02T10:48:49.220Z,79.60
2018-11-02T10:50:52.992Z,78.30
2018-11-02T10:52:56.504Z,78.20
2018-11-02T10:55:00.168Z,78.20
2018-11-02T10:57:03.781Z,78.30
2018-11-02T10:59:07.577Z,78.10
2018-11-02T11:01:16.585Z,78.40
2018-11-02T11:03:20.189Z,78.10
2018-11-02T11:05:23.750Z,78.70
2018-11-02T11:07:27.281Z,79.00
2018-11-02T11:09:31.068Z,80.30
2018-11-02T11:11:34.609Z,80.20
2018-11-02T11:13:38.693Z,78.70
2018-11-02T11:15:41.716Z,78.40
2018-11-02T11:17:45.319Z,78.90
2018-11-02T11:19:48.872Z,78.50
2018-11-02T11:21:52.704Z,77.80
2018-11-02T11:23:56.325Z,78.40
2018-11-02T11:25:59.940Z,78.30
2018-11-02T11:28:03.494Z,78.00
2018-11-02T11:32:39.966Z,78.10
2018-11-02T11:34:43.732Z,78.40
2018-11-02T11:36:47.308Z,79.30
2018-11-02T11:38:51.144Z,79.00
2018-11-02T11:40:54.769Z,78.80
2018-11-02T11:42:58.368Z,78.80
2018-11-02T11:45:01.946Z,79.40
2018-11-02T11:47:05.758Z,79.30
2018-11-02T11:49:10.126Z,80.00
2018-11-02T11:51:13.631Z,80.20
2018-11-02T11:53:17.208Z,79.40
2018-11-02T11:55:21.003Z,79.70
2018-11-02T11:57:24.695Z,79.20
2018-11-02T11:59:28.451Z,78.40
2018-11-02T12:01:32.005Z,77.50
2018-11-02T12:03:35.563Z,77.40
2018-11-02T12:05:39.222Z,77.10
2018-11-02T12:07:42.959Z,76.90
2018-11-02T12:09:46.597Z,76.70
2018-11-02T12:11:50.117Z,77.20
2018-11-02T12:13:53.910Z,77.60
2018-11-02T12:15:57.616Z,77.40
2018-11-02T12:18:01.306Z,78.30
2018-11-02T12:20:06.457Z,78.20
2018-11-02T12:22:10.052Z,77.70
2018-11-02T12:24:13.639Z,77.20
2018-11-02T12:26:17.154Z,77.50
2018-11-02T12:28:20.966Z,77.60
2018-11-02T12:30:24.441Z,77.80
2018-11-02T12:32:28.033Z,77.60
2018-11-02T12:34:31.633Z,77.80
2018-11-02T12:36:35.148Z,77.10
2018-11-02T12:38:38.860Z,77.20
2018-11-02T12:40:42.515Z,76.60
2018-11-02T12:42:47.068Z,77.00
2018-11-02T12:44:50.565Z,76.90
2018-11-02T12:46:54.045Z,77.90
2018-11-02T12:48:58.106Z,78.20
2018-11-02T12:51:01.412Z,77.50
2018-11-02T12:53:05.559Z,76.90
2018-11-02T12:55:09.698Z,76.30
2018-11-02T12:57:13.395Z,76.00
2018-11-02T12:59:16.928Z,75.40
2018-11-02T13:01:20.415Z,74.60
2018-11-02T13:03:24.144Z,74.60
2018-11-02T13:05:27.679Z,74.40
2018-11-02T13:07:31.245Z,75.10
2018-11-02T13:09:34.820Z,73.10
2018-11-02T13:11:38.470Z,73.20
2018-11-02T13:13:42.005Z,72.70
2018-11-02T13:15:45.717Z,72.30
2018-11-02T13:17:49.825Z,72.70
2018-11-02T13:19:53.486Z,72.80
2018-11-02T13:21:57.012Z,72.90
2018-11-02T13:24:00.644Z,72.70
2018-11-02T13:26:04.626Z,72.70
2018-11-02T13:28:08.003Z,72.40
2018-11-02T13:30:11.946Z,73.00
2018-11-02T13:32:15.315Z,72.50
2018-11-02T13:34:18.938Z,71.80
2018-11-02T13:36:22.558Z,71.70
2018-11-02T13:38:25.961Z,71.50
2018-11-02T13:40:29.514Z,70.90
2018-11-02T13:42:33.089Z,70.90
2018-11-02T13:44:36.621Z,71.00
2018-11-02T13:46:40.164Z,71.10
2018-11-02T13:48:44.000Z,70.50
2018-11-02T13:50:47.528Z,71.10
2018-11-02T13:52:51.157Z,70.30
2018-11-02T13:54:54.718Z,70.80
2018-11-02T13:56:58.540Z,70.70
2018-11-02T13:59:02.101Z,70.60
2018-11-02T14:01:06.199Z,70.90
2018-11-02T14:03:09.923Z,71.00
2018-11-02T14:05:14.707Z,71.20
2018-11-02T14:07:18.252Z,70.60
2018-11-02T14:09:21.787Z,70.20
2018-11-02T14:11:25.492Z,70.70
2018-11-02T14:13:29.045Z,70.80
2018-11-02T14:15:32.565Z,70.50
2018-11-02T14:17:36.395Z,71.00
2018-11-02T14:19:40.041Z,71.10
2018-11-02T14:21:43.601Z,72.30
2018-11-02T14:23:48.145Z,73.00
2018-11-02T14:25:51.880Z,72.50
2018-11-02T14:27:55.423Z,72.00
2018-11-02T14:29:59.244Z,71.90
2018-11-02T14:32:02.767Z,71.90
2018-11-02T14:34:06.574Z,71.90
2018-11-02T14:36:10.208Z,71.50
2018-11-02T14:38:13.727Z,71.10
2018-11-02T14:40:17.375Z,70.90
2018-11-02T14:42:20.919Z,71.50
2018-11-02T14:44:24.506Z,71.10
2018-11-02T14:46:28.132Z,71.30
2018-11-02T14:48:31.682Z,70.80
2018-11-02T14:50:35.343Z,70.80
2018-11-02T14:52:39.309Z,70.90
2018-11-02T14:54:42.919Z,70.90
2018-11-02T14:56:46.651Z,71.90
2018-11-02T14:58:50.196Z,72.50
2018-11-02T15:00:53.783Z,71.40
2018-11-02T15:02:57.424Z,72.70
2018-11-02T15:05:01.028Z,72.40
2018-11-02T15:07:04.745Z,71.20
2018-11-02T15:09:11.311Z,70.50
2018-11-02T15:11:15.262Z,70.30
2018-11-02T15:13:19.005Z,69.80
2018-11-02T15:15:22.810Z,70.40
2018-11-02T15:17:26.354Z,70.20
2018-11-02T15:19:29.851Z,70.30
2018-11-02T15:21:33.547Z,70.40
2018-11-02T15:23:37.109Z,70.40
2018-11-02T15:25:40.653Z,70.20
2018-11-02T15:27:44.363Z,70.30
2018-11-02T15:29:47.925Z,70.40
2018-11-02T15:31:51.520Z,70.90
2018-11-02T15:33:55.077Z,71.20
2018-11-02T15:35:58.575Z,71.90
2018-11-02T15:38:02.257Z,71.20
2018-11-02T15:40:06.888Z,71.20
2018-11-02T15:42:10.591Z,71.10
2018-11-02T15:44:14.210Z,71.10
2018-11-02T15:46:17.783Z,70.70
2018-11-02T15:48:21.368Z,71.20
2018-11-02T15:50:25.087Z,71.50
2018-11-02T15:52:28.647Z,72.00
2018-11-02T15:54:32.204Z,72.20
2018-11-02T15:56:35.836Z,72.70
2018-11-02T15:58:39.811Z,73.20
2018-11-02T16:00:43.472Z,73.10
2018-11-02T16:02:48.578Z,73.30
2018-11-02T16:04:52.201Z,73.80
2018-11-02T16:06:55.836Z,74.00
2018-11-02T16:08:59.485Z,74.30
2018-11-02T16:11:03.043Z,74.40
2018-11-02T16:13:06.605Z,74.50
2018-11-02T16:15:10.787Z,74.60
2018-11-02T16:17:14.429Z,74.70
2018-11-02T16:19:17.993Z,74.70
2018-11-02T16:21:21.640Z,74.90
2018-11-02T16:23:25.694Z,75.00
2018-11-02T16:25:29.281Z,75.00
2018-11-02T16:27:32.774Z,75.00
2018-11-02T16:29:36.462Z,75.10
2018-11-02T16:31:39.959Z,74.60
2018-11-02T16:33:43.527Z,74.80
2018-11-02T16:35:47.321Z,75.10
2018-11-02T16:37:50.999Z,74.50
2018-11-02T16:39:54.763Z,74.60
2018-11-02T16:41:58.345Z,74.40
2018-11-02T16:44:01.895Z,74.50
2018-11-02T16:46:05.569Z,74.40
2018-11-02T16:48:09.272Z,75.10
2018-11-02T16:50:14.145Z,75.30
2018-11-02T16:52:17.795Z,75.50
2018-11-02T16:54:22.076Z,75.60
2018-11-02T16:56:26.463Z,75.50
2018-11-02T16:58:30.065Z,74.80
2018-11-02T17:00:33.678Z,74.90
2018-11-02T17:02:37.354Z,75.30
2018-11-02T17:04:40.894Z,75.60
2018-11-02T17:06:44.450Z,75.80
2018-11-02T17:08:47.992Z,75.80
2018-11-02T17:10:51.662Z,75.60
2018-11-02T17:12:55.228Z,76.10
2018-11-02T17:14:58.808Z,75.70
2018-11-02T17:17:02.476Z,75.90
2018-11-02T17:19:06.167Z,75.60
2018-11-02T17:21:09.709Z,75.50
2018-11-02T17:23:13.268Z,75.70
2018-11-02T17:25:16.780Z,76.60
2018-11-02T17:27:20.380Z,76.10
2018-11-02T17:29:23.903Z,76.20
2018-11-02T17:31:27.430Z,76.20
2018-11-02T17:33:30.976Z,76.40
2018-11-02T17:35:34.628Z,76.30
2018-11-02T17:37:38.255Z,76.50
2018-11-02T17:39:41.894Z,76.60
2018-11-02T17:41:45.427Z,76.40
2018-11-02T17:43:48.977Z,76.70
2018-11-02T17:45:52.499Z,77.00
2018-11-02T17:47:56.064Z,77.00
2018-11-02T17:49:59.835Z,77.00
2018-11-02T17:52:03.379Z,77.20
2018-11-02T17:54:07.027Z,77.30
2018-11-02T17:56:10.826Z,77.40
2018-11-02T17:58:14.369Z,77.40
2018-11-02T18:00:17.899Z,77.50
2018-11-02T18:02:21.544Z,77.50
2018-11-02T18:04:25.149Z,77.80
2018-11-02T18:06:28.948Z,77.80
2018-11-02T18:08:32.620Z,78.00
2018-11-02T18:10:36.208Z,78.10
2018-11-02T18:12:40.106Z,78.20
2018-11-02T18:14:43.613Z,78.10
2018-11-02T18:16:47.271Z,78.10
2018-11-02T18:18:50.797Z,78.40
2018-11-02T18:20:54.413Z,78.50
2018-11-02T18:22:57.960Z,78.40
2018-11-02T18:25:01.762Z,78.20
2018-11-02T18:27:05.549Z,78.20
2018-11-02T18:29:09.441Z,78.20
2018-11-02T18:31:13.144Z,78.50
2018-11-02T18:33:16.701Z,78.30
2018-11-02T18:35:20.365Z,78.40
2018-11-02T18:37:24.141Z,78.50
2018-11-02T18:39:27.725Z,78.70
2018-11-02T18:41:31.293Z,78.80
2018-11-02T18:43:35.054Z,78.60
2018-11-02T18:45:39.389Z,78.70
2018-11-02T18:47:45.159Z,78.30
2018-11-02T18:49:48.802Z,78.30
2018-11-02T18:51:52.399Z,78.30
2018-11-02T18:53:56.016Z,78.50
2018-11-02T18:55:59.544Z,78.70
2018-11-02T18:58:03.238Z,78.70
2018-11-02T19:00:08.440Z,78.80
2018-11-02T19:02:11.978Z,78.80
2018-11-02T19:04:15.852Z,78.90
2018-11-02T19:06:19.396Z,78.80
2018-11-02T19:08:23.036Z,78.90
2018-11-02T19:10:26.868Z,79.00
2018-11-02T19:12:30.515Z,79.00
2018-11-02T19:14:34.080Z,78.90
2018-11-02T19:16:37.691Z,78.90
2018-11-02T19:18:41.346Z,78.80
2018-11-02T19:20:44.950Z,78.90
2018-11-02T19:22:48.771Z,79.00
2018-11-02T19:24:52.293Z,78.80
2018-11-02T19:27:02.263Z,78.90
2018-11-02T19:29:06.388Z,78.70
2018-11-02T19:31:09.974Z,78.60
2018-11-02T19:33:13.523Z,79.00
2018-11-02T19:35:17.300Z,79.00
2018-11-02T19:37:20.871Z,79.10
2018-11-02T19:39:24.683Z,79.00
2018-11-02T19:41:28.773Z,78.90
2018-11-02T19:43:32.355Z,79.00
2018-11-02T19:45:36.105Z,78.70
2018-11-02T19:48:12.504Z,78.50
2018-11-02T19:50:17.303Z,78.40
2018-11-02T19:52:20.949Z,78.70
2018-11-02T19:54:24.493Z,78.50
2018-11-02T19:56:28.438Z,78.50
2018-11-02T19:58:31.957Z,78.40
2018-11-02T20:00:35.556Z,78.40
2018-11-02T20:02:39.777Z,78.50
2018-11-02T20:04:43.591Z,78.40
2018-11-02T20:06:47.248Z,78.60
2018-11-02T20:08:50.879Z,78.00
2018-11-02T20:10:54.427Z,77.90
2018-11-02T20:12:58.084Z,78.00
2018-11-02T20:15:01.775Z,78.00
2018-11-02T20:17:05.396Z,78.00
2018-11-02T20:19:09.029Z,78.00
2018-11-02T20:21:12.917Z,78.00
2018-11-02T20:23:16.631Z,77.80
2018-11-02T20:25:20.343Z,78.00
2018-11-02T20:27:24.091Z,77.90
2018-11-02T20:29:27.633Z,78.30
2018-11-02T20:31:31.446Z,78.30
2018-11-02T20:33:35.009Z,78.40
2018-11-02T20:35:38.645Z,78.50
2018-11-02T20:37:42.163Z,78.60
2018-11-02T20:39:46.173Z,79.20
2018-11-02T20:41:49.547Z,78.80
2018-11-02T20:43:53.141Z,78.80
2018-11-02T20:45:56.762Z,78.80
2018-11-02T20:48:00.548Z,79.00
2018-11-02T20:50:04.266Z,78.90
2018-11-02T20:52:07.852Z,79.00
2018-11-02T20:54:11.384Z,79.00
2018-11-02T20:56:14.992Z,78.90
2018-11-02T20:58:18.609Z,78.90
2018-11-02T21:00:23.724Z,78.50
2018-11-02T21:02:27.496Z,78.30
2018-11-02T21:04:31.018Z,78.70
2018-11-02T21:06:34.657Z,78.90
2018-11-02T21:08:38.371Z,77.90
2018-11-02T21:10:41.965Z,78.00
2018-11-02T21:12:45.609Z,78.90
2018-11-02T21:14:49.208Z,79.90
2018-11-02T21:16:52.908Z,80.00
2018-11-02T21:18:56.587Z,80.40
2018-11-02T21:21:00.210Z,80.90
2018-11-02T21:23:03.933Z,80.30
2018-11-02T21:25:08.129Z,80.00
2018-11-02T21:27:11.790Z,80.20
2018-11-02T21:29:15.397Z,81.10
2018-11-02T21:31:18.991Z,80.80
2018-11-02T21:33:22.565Z,80.30
2018-11-02T21:35:26.129Z,79.80
2018-11-02T21:37:29.744Z,79.60
2018-11-02T21:39:33.280Z,79.50
2018-11-02T21:41:36.812Z,79.10
2018-11-02T21:43:40.392Z,79.00
2018-11-02T21:45:43.930Z,78.90
2018-11-02T21:47:47.637Z,78.60
2018-11-02T21:49:51.241Z,78.50
2018-11-02T21:51:54.895Z,78.60
2018-11-02T21:53:58.512Z,78.40
2018-11-02T21:56:02.125Z,78.30
2018-11-02T21:58:05.837Z,78.70
2018-11-02T22:00:12.516Z,79.10
2018-11-02T22:02:16.233Z,79.20
2018-11-02T22:04:20.036Z,79.20
2018-11-02T22:06:23.778Z,79.10
2018-11-02T22:08:27.482Z,79.00
2018-11-02T22:10:31.077Z,79.00
2018-11-02T22:12:34.669Z,79.00
2018-11-02T22:14:38.455Z,78.90
2018-11-02T22:16:41.979Z,78.70
2018-11-02T22:18:45.616Z,78.40
2018-11-02T22:20:49.169Z,78.00
2018-11-02T22:22:52.765Z,77.90
2018-11-02T22:24:56.442Z,78.00
2018-11-02T22:27:00.184Z,78.00
2018-11-02T22:29:03.933Z,78.00
2018-11-02T22:31:07.419Z,78.40
2018-11-02T22:33:11.027Z,78.50
2018-11-02T22:35:15.236Z,78.40
2018-11-02T22:37:18.746Z,78.20
2018-11-02T22:39:22.275Z,78.10
2018-11-02T22:41:25.904Z,79.40
2018-11-02T22:43:29.452Z,79.30
2018-11-02T22:45:33.016Z,80.20
2018-11-02T22:47:36.645Z,80.10
2018-11-02T22:49:40.196Z,80.20
2018-11-02T22:51:43.922Z,80.00
2018-11-02T22:53:47.469Z,80.40
2018-11-02T22:55:51.001Z,80.00
2018-11-02T22:57:54.760Z,80.10
2018-11-02T22:59:58.313Z,79.60
2018-11-02T23:02:02.049Z,79.30
2018-11-02T23:04:06.107Z,79.50
2018-11-02T23:06:09.775Z,79.60
2018-11-02T23:08:13.414Z,79.70
2018-11-02T23:10:16.913Z,79.50
2018-11-02T23:12:20.505Z,79.00
2018-11-02T23:14:24.048Z,79.00
2018-11-02T23:16:27.615Z,78.80
2018-11-02T23:18:31.156Z,78.80
2018-11-02T23:20:35.023Z,79.20
2018-11-02T23:22:38.532Z,80.80
2018-11-02T23:24:42.033Z,81.90
2018-11-02T23:26:45.563Z,82.70
2018-11-02T23:28:49.163Z,81.50
2018-11-02T23:30:52.714Z,81.00
2018-11-02T23:32:56.385Z,80.40
2018-11-02T23:34:59.978Z,80.00
2018-11-02T23:37:03.602Z,79.60
2018-11-02T23:39:08.238Z,79.50
2018-11-02T23:41:11.899Z,79.50
2018-11-02T23:43:15.468Z,79.50
2018-11-02T23:45:19.134Z,80.10
2018-11-02T23:47:22.643Z,80.10
2018-11-02T23:49:26.347Z,79.80
2018-11-02T23:51:29.977Z,79.60
2018-11-02T23:53:33.639Z,79.30
2018-11-02T23:55:37.169Z,79.20
2018-11-02T23:57:40.932Z,79.20
2018-11-02T23:59:44.444Z,79.50
